Terminal Aerodrome Forecast
Issued by NWS Tampa Bay Area, FL

Home | Current Version | Previous Version | Text Only | Print | Product List | Glossary On
Versions: 1 2 3 4 5 6 7 8 9 10 11 12 13 14
000
FTUS42 KTBW 232323
TAFFMY
TAF
KFMY 232323Z 2400/2424 22006KT P6SM SHRA FEW025 BKN150
      TEMPO 2400/2403 4SM RA BKN025
     FM240300 23005KT P6SM VCSH SCT020 OVC100
     FM240600 26006KT P6SM VCSH SCT020 BKN050
     FM240900 VRB04KT 5SM BR BKN012 BKN040
     FM241500 35006KT P6SM BKN025 BKN040
     FM241700 33007KT P6SM SCT040=

USA.gov is the U.S. government's official web portal to all federal, state and local government web resources and services.